sensor_id;sensor_type;location;lat;lon;timestamp;temperature;humidity
24902;DHT22;31328;51.402;0.016;2023-05-29T00:01:29;12.10;91.30
24902;DHT22;31328;51.402;0.016;2023-05-29T00:03:57;12.10;91.30
24902;DHT22;31328;51.402;0.016;2023-05-29T00:06:24;12.10;91.30
24902;DHT22;31328;51.402;0.016;2023-05-29T00:08:50;12.10;91.30
24902;DHT22;31328;51.402;0.016;2023-05-29T00:11:16;12.00;91.50
24902;DHT22;31328;51.402;0.016;2023-05-29T00:13:43;12.00;91.50
24902;DHT22;31328;51.402;0.016;2023-05-29T00:16:09;12.00;91.40
24902;DHT22;31328;51.402;0.016;2023-05-29T00:18:36;12.00;91.60
24902;DHT22;31328;51.402;0.016;2023-05-29T00:21:02;11.90;91.50
24902;DHT22;31328;51.402;0.016;2023-05-29T00:23:29;11.90;91.60
24902;DHT22;31328;51.402;0.016;2023-05-29T00:25:56;11.90;91.70
24902;DHT22;31328;51.402;0.016;2023-05-29T00:28:22;11.80;91.70
24902;DHT22;31328;51.402;0.016;2023-05-29T00:30:49;11.80;91.80
24902;DHT22;31328;51.402;0.016;2023-05-29T00:33:15;11.80;91.90
24902;DHT22;31328;51.402;0.016;2023-05-29T00:35:42;11.80;92.00
24902;DHT22;31328;51.402;0.016;2023-05-29T00:38:08;11.80;92.00
24902;DHT22;31328;51.402;0.016;2023-05-29T00:40:34;11.80;92.10
24902;DHT22;31328;51.402;0.016;2023-05-29T00:43:01;11.80;92.10
24902;DHT22;31328;51.402;0.016;2023-05-29T00:45:27;11.80;92.20
24902;DHT22;31328;51.402;0.016;2023-05-29T00:47:54;11.70;92.20
24902;DHT22;31328;51.402;0.016;2023-05-29T00:50:21;11.70;92.30
24902;DHT22;31328;51.402;0.016;2023-05-29T00:52:48;11.70;92.50
24902;DHT22;31328;51.402;0.016;2023-05-29T00:55:14;11.70;92.50
24902;DHT22;31328;51.402;0.016;2023-05-29T00:57:42;11.70;92.50
24902;DHT22;31328;51.402;0.016;2023-05-29T01:00:09;11.70;92.50
24902;DHT22;31328;51.402;0.016;2023-05-29T01:02:41;11.70;92.60
24902;DHT22;31328;51.402;0.016;2023-05-29T01:05:11;11.70;92.60
24902;DHT22;31328;51.402;0.016;2023-05-29T01:07:38;11.70;92.70
24902;DHT22;31328;51.402;0.016;2023-05-29T01:10:06;11.70;92.70
24902;DHT22;31328;51.402;0.016;2023-05-29T01:12:55;11.60;92.70
24902;DHT22;31328;51.402;0.016;2023-05-29T01:18:45;11.60;92.90
24902;DHT22;31328;51.402;0.016;2023-05-29T01:21:23;11.50;93.00
24902;DHT22;31328;51.402;0.016;2023-05-29T01:26:50;11.50;93.00
24902;DHT22;31328;51.402;0.016;2023-05-29T01:29:21;11.40;93.20
24902;DHT22;31328;51.402;0.016;2023-05-29T01:31:50;11.40;93.20
24902;DHT22;31328;51.402;0.016;2023-05-29T01:34:18;11.30;93.20
24902;DHT22;31328;51.402;0.016;2023-05-29T01:36:44;11.40;93.30
24902;DHT22;31328;51.402;0.016;2023-05-29T01:39:13;11.30;93.40
24902;DHT22;31328;51.402;0.016;2023-05-29T01:41:41;11.30;93.50
24902;DHT22;31328;51.402;0.016;2023-05-29T01:44:08;11.30;93.50
24902;DHT22;31328;51.402;0.016;2023-05-29T01:46:37;11.30;93.60
24902;DHT22;31328;51.402;0.016;2023-05-29T01:49:04;11.30;93.60
24902;DHT22;31328;51.402;0.016;2023-05-29T01:51:31;11.30;93.70
24902;DHT22;31328;51.402;0.016;2023-05-29T01:53:58;11.20;93.70
24902;DHT22;31328;51.402;0.016;2023-05-29T01:56:29;11.20;93.80
24902;DHT22;31328;51.402;0.016;2023-05-29T01:58:56;11.20;93.80
24902;DHT22;31328;51.402;0.016;2023-05-29T02:01:24;11.10;93.90
24902;DHT22;31328;51.402;0.016;2023-05-29T02:03:50;11.10;93.90
24902;DHT22;31328;51.402;0.016;2023-05-29T02:06:17;11.10;94.00
24902;DHT22;31328;51.402;0.016;2023-05-29T02:08:44;11.10;94.10
24902;DHT22;31328;51.402;0.016;2023-05-29T02:11:10;11.00;94.10
24902;DHT22;31328;51.402;0.016;2023-05-29T02:13:37;11.00;94.20
24902;DHT22;31328;51.402;0.016;2023-05-29T02:16:03;11.00;94.20
24902;DHT22;31328;51.402;0.016;2023-05-29T02:18:30;11.00;94.30
24902;DHT22;31328;51.402;0.016;2023-05-29T02:20:57;11.00;94.30
24902;DHT22;31328;51.402;0.016;2023-05-29T02:23:23;10.90;94.40
24902;DHT22;31328;51.402;0.016;2023-05-29T02:25:51;10.90;94.40
24902;DHT22;31328;51.402;0.016;2023-05-29T02:28:18;10.90;94.90
24902;DHT22;31328;51.402;0.016;2023-05-29T02:30:44;10.90;94.50
24902;DHT22;31328;51.402;0.016;2023-05-29T02:33:10;10.90;94.60
24902;DHT22;31328;51.402;0.016;2023-05-29T02:35:37;10.80;94.60
24902;DHT22;31328;51.402;0.016;2023-05-29T02:38:04;10.80;94.60
24902;DHT22;31328;51.402;0.016;2023-05-29T02:40:30;10.80;94.80
24902;DHT22;31328;51.402;0.016;2023-05-29T02:42:58;10.70;94.80
24902;DHT22;31328;51.402;0.016;2023-05-29T02:45:25;10.70;94.80
24902;DHT22;31328;51.402;0.016;2023-05-29T02:47:51;10.70;94.90
24902;DHT22;31328;51.402;0.016;2023-05-29T02:50:17;10.60;94.90
24902;DHT22;31328;51.402;0.016;2023-05-29T02:52:44;10.60;94.90
24902;DHT22;31328;51.402;0.016;2023-05-29T02:55:10;10.50;95.10
24902;DHT22;31328;51.402;0.016;2023-05-29T02:57:37;10.50;95.10
24902;DHT22;31328;51.402;0.016;2023-05-29T03:00:04;10.50;95.20
24902;DHT22;31328;51.402;0.016;2023-05-29T03:02:35;10.40;95.20
24902;DHT22;31328;51.402;0.016;2023-05-29T03:05:01;10.40;95.20
24902;DHT22;31328;51.402;0.016;2023-05-29T03:07:28;10.40;95.20
24902;DHT22;31328;51.402;0.016;2023-05-29T03:09:56;10.30;95.30
24902;DHT22;31328;51.402;0.016;2023-05-29T03:12:23;10.30;95.30
24902;DHT22;31328;51.402;0.016;2023-05-29T03:14:49;10.30;95.40
24902;DHT22;31328;51.402;0.016;2023-05-29T03:17:16;10.20;95.40
24902;DHT22;31328;51.402;0.016;2023-05-29T03:19:42;10.20;95.40
24902;DHT22;31328;51.402;0.016;2023-05-29T03:22:10;10.20;95.50
24902;DHT22;31328;51.402;0.016;2023-05-29T03:24:37;10.20;95.50
24902;DHT22;31328;51.402;0.016;2023-05-29T03:27:05;10.10;95.50
24902;DHT22;31328;51.402;0.016;2023-05-29T03:29:32;10.10;95.50
24902;DHT22;31328;51.402;0.016;2023-05-29T03:32:00;10.10;95.60
24902;DHT22;31328;51.402;0.016;2023-05-29T03:34:30;10.10;95.60
24902;DHT22;31328;51.402;0.016;2023-05-29T03:36:59;10.10;95.60
24902;DHT22;31328;51.402;0.016;2023-05-29T03:39:27;10.10;95.60
24902;DHT22;31328;51.402;0.016;2023-05-29T03:41:53;10.10;95.60
24902;DHT22;31328;51.402;0.016;2023-05-29T03:44:20;10.10;95.50
24902;DHT22;31328;51.402;0.016;2023-05-29T03:46:46;10.10;95.50
24902;DHT22;31328;51.402;0.016;2023-05-29T03:49:13;10.10;95.50
24902;DHT22;31328;51.402;0.016;2023-05-29T03:51:42;10.10;95.50
24902;DHT22;31328;51.402;0.016;2023-05-29T03:54:08;10.10;95.50
24902;DHT22;31328;51.402;0.016;2023-05-29T03:56:36;10.00;95.50
24902;DHT22;31328;51.402;0.016;2023-05-29T03:59:03;10.00;95.50
24902;DHT22;31328;51.402;0.016;2023-05-29T04:01:32;10.00;95.60
24902;DHT22;31328;51.402;0.016;2023-05-29T04:03:58;10.00;95.60
24902;DHT22;31328;51.402;0.016;2023-05-29T04:06:25;10.00;95.50
24902;DHT22;31328;51.402;0.016;2023-05-29T04:08:51;10.00;95.50
24902;DHT22;31328;51.402;0.016;2023-05-29T04:11:17;10.00;95.50
24902;DHT22;31328;51.402;0.016;2023-05-29T04:13:47;10.00;95.50
24902;DHT22;31328;51.402;0.016;2023-05-29T04:16:14;10.00;95.50
24902;DHT22;31328;51.402;0.016;2023-05-29T04:18:42;10.00;95.50
24902;DHT22;31328;51.402;0.016;2023-05-29T04:21:08;10.00;95.40
24902;DHT22;31328;51.402;0.016;2023-05-29T04:23:35;10.00;95.50
24902;DHT22;31328;51.402;0.016;2023-05-29T04:26:02;10.00;95.50
24902;DHT22;31328;51.402;0.016;2023-05-29T04:28:28;10.00;95.50
24902;DHT22;31328;51.402;0.016;2023-05-29T04:30:56;10.00;95.50
24902;DHT22;31328;51.402;0.016;2023-05-29T04:33:23;9.90;95.50
24902;DHT22;31328;51.402;0.016;2023-05-29T04:35:51;9.90;95.50
24902;DHT22;31328;51.402;0.016;2023-05-29T04:38:19;9.90;95.50
24902;DHT22;31328;51.402;0.016;2023-05-29T04:40:52;9.90;95.50
24902;DHT22;31328;51.402;0.016;2023-05-29T04:43:19;10.00;95.50
24902;DHT22;31328;51.402;0.016;2023-05-29T04:46:06;10.00;95.50
24902;DHT22;31328;51.402;0.016;2023-05-29T04:48:35;10.00;95.50
24902;DHT22;31328;51.402;0.016;2023-05-29T04:51:02;10.00;95.40
24902;DHT22;31328;51.402;0.016;2023-05-29T04:53:29;10.00;95.50
24902;DHT22;31328;51.402;0.016;2023-05-29T04:55:57;10.00;95.50
24902;DHT22;31328;51.402;0.016;2023-05-29T04:58:26;10.10;95.50
24902;DHT22;31328;51.402;0.016;2023-05-29T05:00:52;10.00;95.50
24902;DHT22;31328;51.402;0.016;2023-05-29T05:03:19;10.00;95.50
24902;DHT22;31328;51.402;0.016;2023-05-29T05:05:45;10.10;95.50
24902;DHT22;31328;51.402;0.016;2023-05-29T05:08:14;10.10;95.50
24902;DHT22;31328;51.402;0.016;2023-05-29T05:10:41;10.20;95.50
24902;DHT22;31328;51.402;0.016;2023-05-29T05:13:07;10.20;95.50
24902;DHT22;31328;51.402;0.016;2023-05-29T05:15:34;10.30;95.50
24902;DHT22;31328;51.402;0.016;2023-05-29T05:18:01;10.30;95.50
24902;DHT22;31328;51.402;0.016;2023-05-29T05:20:28;10.40;95.50
24902;DHT22;31328;51.402;0.016;2023-05-29T05:22:59;10.50;95.40
24902;DHT22;31328;51.402;0.016;2023-05-29T05:25:26;10.50;95.40
24902;DHT22;31328;51.402;0.016;2023-05-29T05:27:53;10.50;95.40
24902;DHT22;31328;51.402;0.016;2023-05-29T05:30:21;10.60;95.30
24902;DHT22;31328;51.402;0.016;2023-05-29T05:32:49;10.60;95.40
24902;DHT22;31328;51.402;0.016;2023-05-29T05:35:15;10.70;95.40
24902;DHT22;31328;51.402;0.016;2023-05-29T05:37:42;10.70;95.20
24902;DHT22;31328;51.402;0.016;2023-05-29T05:40:09;10.80;95.20
24902;DHT22;31328;51.402;0.016;2023-05-29T05:42:44;10.80;95.40
24902;DHT22;31328;51.402;0.016;2023-05-29T05:45:12;10.80;95.10
24902;DHT22;31328;51.402;0.016;2023-05-29T05:47:39;10.90;95.10
24902;DHT22;31328;51.402;0.016;2023-05-29T05:50:08;10.90;95.00
24902;DHT22;31328;51.402;0.016;2023-05-29T05:52:34;11.00;95.00
24902;DHT22;31328;51.402;0.016;2023-05-29T05:55:01;11.00;94.90
24902;DHT22;31328;51.402;0.016;2023-05-29T05:57:28;11.00;94.90
24902;DHT22;31328;51.402;0.016;2023-05-29T05:59:56;11.10;94.80
24902;DHT22;31328;51.402;0.016;2023-05-29T06:02:24;11.10;94.70
24902;DHT22;31328;51.402;0.016;2023-05-29T06:04:51;11.20;94.70
24902;DHT22;31328;51.402;0.016;2023-05-29T06:07:18;11.20;94.70
24902;DHT22;31328;51.402;0.016;2023-05-29T06:09:45;11.30;94.60
24902;DHT22;31328;51.402;0.016;2023-05-29T06:12:11;11.40;94.60
24902;DHT22;31328;51.402;0.016;2023-05-29T06:14:45;11.50;94.50
24902;DHT22;31328;51.402;0.016;2023-05-29T06:17:12;11.60;94.40
24902;DHT22;31328;51.402;0.016;2023-05-29T06:19:39;11.70;94.30
24902;DHT22;31328;51.402;0.016;2023-05-29T06:22:06;11.80;94.10
24902;DHT22;31328;51.402;0.016;2023-05-29T06:24:33;11.80;94.30
24902;DHT22;31328;51.402;0.016;2023-05-29T06:27:00;11.90;93.90
24902;DHT22;31328;51.402;0.016;2023-05-29T06:29:27;12.00;93.90
24902;DHT22;31328;51.402;0.016;2023-05-29T06:31:54;12.00;93.80
24902;DHT22;31328;51.402;0.016;2023-05-29T06:34:20;12.10;93.80
24902;DHT22;31328;51.402;0.016;2023-05-29T06:36:47;12.20;93.60
24902;DHT22;31328;51.402;0.016;2023-05-29T06:39:14;12.20;93.60
24902;DHT22;31328;51.402;0.016;2023-05-29T06:41:41;12.30;93.80
24902;DHT22;31328;51.402;0.016;2023-05-29T06:44:08;12.30;93.40
24902;DHT22;31328;51.402;0.016;2023-05-29T06:46:35;12.40;93.20
24902;DHT22;31328;51.402;0.016;2023-05-29T06:49:01;12.50;93.50
24902;DHT22;31328;51.402;0.016;2023-05-29T06:51:28;12.60;93.00
24902;DHT22;31328;51.402;0.016;2023-05-29T06:53:54;12.70;92.90
24902;DHT22;31328;51.402;0.016;2023-05-29T06:56:21;12.70;92.60
24902;DHT22;31328;51.402;0.016;2023-05-29T06:58:48;12.70;92.60
24902;DHT22;31328;51.402;0.016;2023-05-29T07:01:15;12.80;92.50
24902;DHT22;31328;51.402;0.016;2023-05-29T07:03:53;12.90;92.50
24902;DHT22;31328;51.402;0.016;2023-05-29T07:06:20;12.90;92.30
24902;DHT22;31328;51.402;0.016;2023-05-29T07:08:46;13.00;92.40
24902;DHT22;31328;51.402;0.016;2023-05-29T07:11:13;13.00;92.20
24902;DHT22;31328;51.402;0.016;2023-05-29T07:13:39;13.00;92.10
24902;DHT22;31328;51.402;0.016;2023-05-29T07:16:06;13.10;92.10
24902;DHT22;31328;51.402;0.016;2023-05-29T07:18:34;13.10;92.00
24902;DHT22;31328;51.402;0.016;2023-05-29T07:21:02;13.20;91.90
24902;DHT22;31328;51.402;0.016;2023-05-29T07:23:30;13.30;91.70
24902;DHT22;31328;51.402;0.016;2023-05-29T07:25:57;13.40;91.70
24902;DHT22;31328;51.402;0.016;2023-05-29T07:28:25;13.50;91.60
24902;DHT22;31328;51.402;0.016;2023-05-29T07:30:52;13.60;91.50
24902;DHT22;31328;51.402;0.016;2023-05-29T07:33:18;13.70;91.20
24902;DHT22;31328;51.402;0.016;2023-05-29T07:35:45;13.80;91.10
24902;DHT22;31328;51.402;0.016;2023-05-29T07:38:13;13.80;90.80
24902;DHT22;31328;51.402;0.016;2023-05-29T07:40:41;13.90;90.60
24902;DHT22;31328;51.402;0.016;2023-05-29T07:43:07;13.80;90.50
24902;DHT22;31328;51.402;0.016;2023-05-29T07:45:48;13.80;90.60
24902;DHT22;31328;51.402;0.016;2023-05-29T07:48:15;13.90;90.60
24902;DHT22;31328;51.402;0.016;2023-05-29T07:50:42;14.00;90.60
24902;DHT22;31328;51.402;0.016;2023-05-29T07:53:09;14.10;90.60
24902;DHT22;31328;51.402;0.016;2023-05-29T07:55:38;14.20;90.40
24902;DHT22;31328;51.402;0.016;2023-05-29T07:58:07;14.20;90.10
24902;DHT22;31328;51.402;0.016;2023-05-29T08:00:40;14.30;90.00
24902;DHT22;31328;51.402;0.016;2023-05-29T08:03:13;14.30;89.80
24902;DHT22;31328;51.402;0.016;2023-05-29T08:05:55;14.40;90.20
24902;DHT22;31328;51.402;0.016;2023-05-29T08:08:23;14.50;89.70
24902;DHT22;31328;51.402;0.016;2023-05-29T08:10:49;14.60;89.40
24902;DHT22;31328;51.402;0.016;2023-05-29T08:13:15;14.70;89.00
24902;DHT22;31328;51.402;0.016;2023-05-29T08:15:44;14.70;88.50
24902;DHT22;31328;51.402;0.016;2023-05-29T08:18:11;14.80;88.50
24902;DHT22;31328;51.402;0.016;2023-05-29T08:20:38;14.90;88.20
24902;DHT22;31328;51.402;0.016;2023-05-29T08:23:04;15.00;88.00
24902;DHT22;31328;51.402;0.016;2023-05-29T08:25:31;15.00;87.50
24902;DHT22;31328;51.402;0.016;2023-05-29T08:27:57;15.10;87.30
24902;DHT22;31328;51.402;0.016;2023-05-29T08:30:24;15.20;86.80
24902;DHT22;31328;51.402;0.016;2023-05-29T08:32:51;15.30;86.40
24902;DHT22;31328;51.402;0.016;2023-05-29T08:35:17;15.30;86.10
24902;DHT22;31328;51.402;0.016;2023-05-29T08:37:43;15.40;86.00
24902;DHT22;31328;51.402;0.016;2023-05-29T08:40:10;15.40;85.70
24902;DHT22;31328;51.402;0.016;2023-05-29T08:42:51;15.50;85.20
24902;DHT22;31328;51.402;0.016;2023-05-29T08:45:22;15.50;85.00
24902;DHT22;31328;51.402;0.016;2023-05-29T08:47:52;15.50;85.40
24902;DHT22;31328;51.402;0.016;2023-05-29T08:50:21;15.50;85.20
24902;DHT22;31328;51.402;0.016;2023-05-29T08:52:47;15.50;85.10
24902;DHT22;31328;51.402;0.016;2023-05-29T08:55:14;15.60;85.30
24902;DHT22;31328;51.402;0.016;2023-05-29T08:57:41;15.70;85.60
24902;DHT22;31328;51.402;0.016;2023-05-29T09:00:11;15.90;84.40
24902;DHT22;31328;51.402;0.016;2023-05-29T09:02:42;16.10;83.60
24902;DHT22;31328;51.402;0.016;2023-05-29T09:05:11;16.40;83.50
24902;DHT22;31328;51.402;0.016;2023-05-29T09:07:39;16.70;83.30
24902;DHT22;31328;51.402;0.016;2023-05-29T09:10:12;16.90;82.60
24902;DHT22;31328;51.402;0.016;2023-05-29T09:12:39;17.10;81.80
24902;DHT22;31328;51.402;0.016;2023-05-29T09:15:20;17.20;81.30
24902;DHT22;31328;51.402;0.016;2023-05-29T09:17:51;17.30;80.00
24902;DHT22;31328;51.402;0.016;2023-05-29T09:20:21;17.30;79.80
24902;DHT22;31328;51.402;0.016;2023-05-29T09:22:56;17.30;79.50
24902;DHT22;31328;51.402;0.016;2023-05-29T09:25:23;17.30;79.70
24902;DHT22;31328;51.402;0.016;2023-05-29T09:28:01;17.20;79.60
24902;DHT22;31328;51.402;0.016;2023-05-29T09:30:40;17.20;79.40
24902;DHT22;31328;51.402;0.016;2023-05-29T09:33:11;17.20;79.50
24902;DHT22;31328;51.402;0.016;2023-05-29T09:35:39;17.30;79.00
24902;DHT22;31328;51.402;0.016;2023-05-29T09:38:07;17.40;78.80
24902;DHT22;31328;51.402;0.016;2023-05-29T09:40:36;17.40;78.50
24902;DHT22;31328;51.402;0.016;2023-05-29T09:43:03;17.40;78.20
24902;DHT22;31328;51.402;0.016;2023-05-29T09:45:36;17.50;78.00
24902;DHT22;31328;51.402;0.016;2023-05-29T09:48:03;17.60;77.70
24902;DHT22;31328;51.402;0.016;2023-05-29T09:50:29;17.80;77.60
24902;DHT22;31328;51.402;0.016;2023-05-29T09:52:56;17.90;76.80
24902;DHT22;31328;51.402;0.016;2023-05-29T09:55:24;17.90;76.50
24902;DHT22;31328;51.402;0.016;2023-05-29T09:57:53;17.90;76.50
24902;DHT22;31328;51.402;0.016;2023-05-29T10:00:20;18.00;76.10
24902;DHT22;31328;51.402;0.016;2023-05-29T10:02:50;18.00;76.00
24902;DHT22;31328;51.402;0.016;2023-05-29T10:05:17;18.10;75.80
24902;DHT22;31328;51.402;0.016;2023-05-29T10:07:45;18.10;75.80
24902;DHT22;31328;51.402;0.016;2023-05-29T10:10:14;18.20;76.20
24902;DHT22;31328;51.402;0.016;2023-05-29T10:12:45;18.40;75.60
24902;DHT22;31328;51.402;0.016;2023-05-29T10:15:15;18.50;75.60
24902;DHT22;31328;51.402;0.016;2023-05-29T10:17:50;18.70;76.20
24902;DHT22;31328;51.402;0.016;2023-05-29T10:20:17;19.00;74.20
24902;DHT22;31328;51.402;0.016;2023-05-29T10:22:48;19.10;73.50
24902;DHT22;31328;51.402;0.016;2023-05-29T10:25:18;19.10;72.60
24902;DHT22;31328;51.402;0.016;2023-05-29T10:27:44;19.10;72.20
24902;DHT22;31328;51.402;0.016;2023-05-29T10:30:31;19.00;72.20
24902;DHT22;31328;51.402;0.016;2023-05-29T10:33:30;19.00;72.20
24902;DHT22;31328;51.402;0.016;2023-05-29T10:36:18;19.10;72.50
24902;DHT22;31328;51.402;0.016;2023-05-29T10:38:45;19.20;72.60
24902;DHT22;31328;51.402;0.016;2023-05-29T10:41:30;19.20;72.00
24902;DHT22;31328;51.402;0.016;2023-05-29T10:44:00;19.20;70.90
24902;DHT22;31328;51.402;0.016;2023-05-29T10:49:18;19.30;70.40
24902;DHT22;31328;51.402;0.016;2023-05-29T10:51:44;19.30;70.10
24902;DHT22;31328;51.402;0.016;2023-05-29T10:54:11;19.30;70.20
24902;DHT22;31328;51.402;0.016;2023-05-29T10:56:38;19.40;70.50
24902;DHT22;31328;51.402;0.016;2023-05-29T10:59:04;19.40;70.60
24902;DHT22;31328;51.402;0.016;2023-05-29T11:01:31;19.50;70.50
24902;DHT22;31328;51.402;0.016;2023-05-29T11:06:48;19.50;69.70
24902;DHT22;31328;51.402;0.016;2023-05-29T11:09:35;19.40;69.80
24902;DHT22;31328;51.402;0.016;2023-05-29T11:12:20;19.20;69.70
24902;DHT22;31328;51.402;0.016;2023-05-29T11:14:56;19.00;69.10
24902;DHT22;31328;51.402;0.016;2023-05-29T11:17:30;18.70;69.80
24902;DHT22;31328;51.402;0.016;2023-05-29T11:20:00;18.40;70.60
24902;DHT22;31328;51.402;0.016;2023-05-29T11:25:05;18.30;72.10
24902;DHT22;31328;51.402;0.016;2023-05-29T11:27:33;18.20;72.30
24902;DHT22;31328;51.402;0.016;2023-05-29T11:30:00;18.30;72.90
24902;DHT22;31328;51.402;0.016;2023-05-29T11:32:27;18.20;72.40
24902;DHT22;31328;51.402;0.016;2023-05-29T11:34:56;18.20;73.20
24902;DHT22;31328;51.402;0.016;2023-05-29T11:37:25;18.30;72.50
24902;DHT22;31328;51.402;0.016;2023-05-29T11:39:51;18.30;71.70
24902;DHT22;31328;51.402;0.016;2023-05-29T11:42:18;18.30;71.30
24902;DHT22;31328;51.402;0.016;2023-05-29T11:44:44;18.40;71.20
24902;DHT22;31328;51.402;0.016;2023-05-29T11:47:10;18.40;70.60
24902;DHT22;31328;51.402;0.016;2023-05-29T11:49:38;18.40;70.50
24902;DHT22;31328;51.402;0.016;2023-05-29T11:52:07;18.50;70.70
24902;DHT22;31328;51.402;0.016;2023-05-29T11:54:34;18.50;70.60
24902;DHT22;31328;51.402;0.016;2023-05-29T11:57:01;18.60;70.90
24902;DHT22;31328;51.402;0.016;2023-05-29T11:59:29;18.50;70.40
24902;DHT22;31328;51.402;0.016;2023-05-29T12:01:56;18.60;70.50
24902;DHT22;31328;51.402;0.016;2023-05-29T12:04:22;18.60;70.70
24902;DHT22;31328;51.402;0.016;2023-05-29T12:06:48;18.70;71.00
24902;DHT22;31328;51.402;0.016;2023-05-29T12:09:28;18.80;70.40
24902;DHT22;31328;51.402;0.016;2023-05-29T12:12:04;18.90;70.30
24902;DHT22;31328;51.402;0.016;2023-05-29T12:14:33;18.90;69.80
24902;DHT22;31328;51.402;0.016;2023-05-29T12:16:59;18.90;69.80
24902;DHT22;31328;51.402;0.016;2023-05-29T12:19:25;18.80;69.70
24902;DHT22;31328;51.402;0.016;2023-05-29T12:21:52;18.80;70.10
24902;DHT22;31328;51.402;0.016;2023-05-29T12:24:19;18.70;70.00
24902;DHT22;31328;51.402;0.016;2023-05-29T12:26:46;18.60;70.10
24902;DHT22;31328;51.402;0.016;2023-05-29T12:29:15;18.60;70.70
24902;DHT22;31328;51.402;0.016;2023-05-29T12:31:41;18.70;71.10
24902;DHT22;31328;51.402;0.016;2023-05-29T12:34:10;18.80;70.50
24902;DHT22;31328;51.402;0.016;2023-05-29T12:36:41;18.80;70.00
24902;DHT22;31328;51.402;0.016;2023-05-29T12:39:09;18.70;69.50
24902;DHT22;31328;51.402;0.016;2023-05-29T12:41:37;18.60;69.30
24902;DHT22;31328;51.402;0.016;2023-05-29T12:44:05;18.60;69.70
24902;DHT22;31328;51.402;0.016;2023-05-29T12:46:40;18.50;69.60
24902;DHT22;31328;51.402;0.016;2023-05-29T12:49:17;18.50;69.80
24902;DHT22;31328;51.402;0.016;2023-05-29T12:51:47;18.60;69.80
24902;DHT22;31328;51.402;0.016;2023-05-29T12:54:14;18.70;70.00
24902;DHT22;31328;51.402;0.016;2023-05-29T12:56:41;18.80;69.70
24902;DHT22;31328;51.402;0.016;2023-05-29T12:59:08;18.80;69.50
24902;DHT22;31328;51.402;0.016;2023-05-29T13:01:36;19.00;69.00
24902;DHT22;31328;51.402;0.016;2023-05-29T13:04:04;19.10;68.70
24902;DHT22;31328;51.402;0.016;2023-05-29T13:06:37;19.30;68.60
24902;DHT22;31328;51.402;0.016;2023-05-29T13:09:03;19.30;67.70
24902;DHT22;31328;51.402;0.016;2023-05-29T13:11:31;19.30;67.40
24902;DHT22;31328;51.402;0.016;2023-05-29T13:13:58;19.30;67.60
24902;DHT22;31328;51.402;0.016;2023-05-29T13:16:24;19.30;67.70
24902;DHT22;31328;51.402;0.016;2023-05-29T13:18:50;19.40;67.70
24902;DHT22;31328;51.402;0.016;2023-05-29T13:21:17;19.40;67.40
24902;DHT22;31328;51.402;0.016;2023-05-29T13:23:43;19.40;67.00
24902;DHT22;31328;51.402;0.016;2023-05-29T13:26:09;19.30;67.10
24902;DHT22;31328;51.402;0.016;2023-05-29T13:28:36;19.40;67.70
24902;DHT22;31328;51.402;0.016;2023-05-29T13:31:02;19.40;67.80
24902;DHT22;31328;51.402;0.016;2023-05-29T13:33:28;19.50;67.70
24902;DHT22;31328;51.402;0.016;2023-05-29T13:35:55;19.50;67.80
24902;DHT22;31328;51.402;0.016;2023-05-29T13:38:21;19.60;68.10
24902;DHT22;31328;51.402;0.016;2023-05-29T13:40:47;19.70;68.10
24902;DHT22;31328;51.402;0.016;2023-05-29T13:43:14;19.70;67.90
24902;DHT22;31328;51.402;0.016;2023-05-29T13:45:40;19.80;68.00
24902;DHT22;31328;51.402;0.016;2023-05-29T13:48:06;19.80;68.10
24902;DHT22;31328;51.402;0.016;2023-05-29T13:50:33;19.90;67.90
24902;DHT22;31328;51.402;0.016;2023-05-29T13:53:00;19.90;67.60
24902;DHT22;31328;51.402;0.016;2023-05-29T13:55:26;19.80;67.50
24902;DHT22;31328;51.402;0.016;2023-05-29T13:57:52;19.80;67.50
24902;DHT22;31328;51.402;0.016;2023-05-29T14:00:19;19.80;67.50
24902;DHT22;31328;51.402;0.016;2023-05-29T14:02:45;19.80;67.40
24902;DHT22;31328;51.402;0.016;2023-05-29T14:05:12;19.80;67.40
24902;DHT22;31328;51.402;0.016;2023-05-29T14:07:38;19.80;67.30
24902;DHT22;31328;51.402;0.016;2023-05-29T14:10:05;19.80;67.70
24902;DHT22;31328;51.402;0.016;2023-05-29T14:12:31;19.80;67.60
24902;DHT22;31328;51.402;0.016;2023-05-29T14:14:58;19.80;67.60
24902;DHT22;31328;51.402;0.016;2023-05-29T14:17:24;19.90;67.30
24902;DHT22;31328;51.402;0.016;2023-05-29T14:19:52;19.90;67.10
24902;DHT22;31328;51.402;0.016;2023-05-29T14:22:18;19.90;67.20
24902;DHT22;31328;51.402;0.016;2023-05-29T14:24:44;20.00;67.30
24902;DHT22;31328;51.402;0.016;2023-05-29T14:27:11;20.00;67.00
24902;DHT22;31328;51.402;0.016;2023-05-29T14:29:37;20.00;67.10
24902;DHT22;31328;51.402;0.016;2023-05-29T14:32:03;20.00;67.10
24902;DHT22;31328;51.402;0.016;2023-05-29T14:34:30;20.00;67.00
24902;DHT22;31328;51.402;0.016;2023-05-29T14:36:56;20.00;66.90
24902;DHT22;31328;51.402;0.016;2023-05-29T14:39:22;20.10;66.80
24902;DHT22;31328;51.402;0.016;2023-05-29T14:41:49;20.00;66.70
24902;DHT22;31328;51.402;0.016;2023-05-29T14:44:15;19.90;66.40
24902;DHT22;31328;51.402;0.016;2023-05-29T14:46:42;19.80;66.40
24902;DHT22;31328;51.402;0.016;2023-05-29T14:49:08;19.80;66.80
24902;DHT22;31328;51.402;0.016;2023-05-29T14:51:34;19.70;67.20
24902;DHT22;31328;51.402;0.016;2023-05-29T14:54:02;19.80;66.70
24902;DHT22;31328;51.402;0.016;2023-05-29T14:56:28;19.80;66.60
24902;DHT22;31328;51.402;0.016;2023-05-29T14:58:55;19.90;66.70
24902;DHT22;31328;51.402;0.016;2023-05-29T15:01:21;19.90;66.60
24902;DHT22;31328;51.402;0.016;2023-05-29T15:03:48;19.90;66.10
24902;DHT22;31328;51.402;0.016;2023-05-29T15:06:14;19.90;65.80
24902;DHT22;31328;51.402;0.016;2023-05-29T15:08:41;19.90;66.10
24902;DHT22;31328;51.402;0.016;2023-05-29T15:11:09;19.80;66.60
24902;DHT22;31328;51.402;0.016;2023-05-29T15:13:35;19.80;66.80
24902;DHT22;31328;51.402;0.016;2023-05-29T15:16:02;19.80;67.00
24902;DHT22;31328;51.402;0.016;2023-05-29T15:18:30;19.70;66.50
24902;DHT22;31328;51.402;0.016;2023-05-29T15:20:56;19.70;66.40
24902;DHT22;31328;51.402;0.016;2023-05-29T15:23:24;19.60;66.10
24902;DHT22;31328;51.402;0.016;2023-05-29T15:25:51;19.60;65.90
24902;DHT22;31328;51.402;0.016;2023-05-29T15:28:17;19.60;65.90
24902;DHT22;31328;51.402;0.016;2023-05-29T15:30:44;19.50;65.70
24902;DHT22;31328;51.402;0.016;2023-05-29T15:33:11;19.40;65.80
24902;DHT22;31328;51.402;0.016;2023-05-29T15:35:38;19.30;66.30
24902;DHT22;31328;51.402;0.016;2023-05-29T15:38:04;19.30;66.10
24902;DHT22;31328;51.402;0.016;2023-05-29T15:40:31;19.20;65.50
24902;DHT22;31328;51.402;0.016;2023-05-29T15:42:57;19.20;65.90
24902;DHT22;31328;51.402;0.016;2023-05-29T15:45:23;19.20;66.20
24902;DHT22;31328;51.402;0.016;2023-05-29T15:47:51;19.20;66.20
24902;DHT22;31328;51.402;0.016;2023-05-29T15:50:18;19.20;66.40